createdAt,value
2023-10-23T00:01:54.898Z,12.87
2023-10-23T00:04:22.708Z,12.94
2023-10-23T00:06:50.584Z,12.98
2023-10-23T00:09:18.212Z,13.05
2023-10-23T00:11:45.747Z,12.74
2023-10-23T00:14:14.628Z,12.92
2023-10-23T00:16:42.321Z,13.03
2023-10-23T00:19:09.899Z,13.07
2023-10-23T00:21:37.429Z,13.14
2023-10-23T00:24:05.589Z,13.12
2023-10-23T00:26:33.090Z,13.06
2023-10-23T00:29:01.873Z,13.16
2023-10-23T00:31:30.737Z,13.08
2023-10-23T00:33:58.286Z,13.08
2023-10-23T00:36:26.158Z,13.09
2023-10-23T00:38:53.774Z,13.19
2023-10-23T00:41:21.315Z,13.18
2023-10-23T00:43:48.821Z,13.04
2023-10-23T00:46:20.184Z,13.11
2023-10-23T00:48:49.475Z,13.15
2023-10-23T00:51:18.233Z,13.19
2023-10-23T00:53:46.005Z,13.21
2023-10-23T00:56:13.984Z,13.21
2023-10-23T00:58:43.574Z,13.11
2023-10-23T01:01:13.487Z,13.22
2023-10-23T01:03:41.665Z,13.11
2023-10-23T01:06:11.480Z,13.19
2023-10-23T01:08:39.316Z,13.21
2023-10-23T01:11:07.140Z,13.16
2023-10-23T01:13:34.670Z,13.22
2023-10-23T01:16:02.179Z,13.22
2023-10-23T01:18:29.788Z,12.92
2023-10-23T01:20:57.455Z,13.11
2023-10-23T01:23:29.905Z,13.10
2023-10-23T01:25:58.742Z,13.12
2023-10-23T01:28:26.245Z,13.02
2023-10-23T01:30:53.872Z,13.03
2023-10-23T01:33:21.742Z,13.03
2023-10-23T01:35:49.237Z,12.95
2023-10-23T01:38:17.579Z,12.99
2023-10-23T01:40:45.081Z,12.89
2023-10-23T01:43:14.053Z,12.83
2023-10-23T01:45:41.699Z,12.87
2023-10-23T01:48:09.306Z,12.86
2023-10-23T01:50:39.453Z,12.85
2023-10-23T01:53:08.619Z,13.02
2023-10-23T01:55:36.453Z,13.12
2023-10-23T01:58:04.138Z,13.08
2023-10-23T02:00:33.301Z,13.15
2023-10-23T02:03:01.299Z,13.21
2023-10-23T02:05:28.964Z,13.20
2023-10-23T02:07:56.523Z,13.20
2023-10-23T02:10:24.264Z,13.15
2023-10-23T02:12:51.859Z,13.16
2023-10-23T02:15:19.468Z,13.07
2023-10-23T02:17:48.426Z,13.07
2023-10-23T02:20:16.129Z,13.08
2023-10-23T02:22:43.623Z,13.07
2023-10-23T02:25:11.350Z,13.05
2023-10-23T02:27:38.889Z,13.05
2023-10-23T02:30:08.360Z,12.97
2023-10-23T02:32:35.949Z,12.99
2023-10-23T02:35:05.312Z,12.73
2023-10-23T02:37:33.070Z,12.87
2023-10-23T02:40:00.893Z,12.90
2023-10-23T02:42:28.494Z,12.78
2023-10-23T02:44:56.254Z,12.93
2023-10-23T02:47:23.753Z,12.89
2023-10-23T02:49:51.276Z,12.81
2023-10-23T02:52:20.203Z,12.75
2023-10-23T02:54:47.751Z,12.70
2023-10-23T02:57:15.279Z,12.78
2023-10-23T02:59:47.774Z,12.76
2023-10-23T03:02:15.823Z,12.87
2023-10-23T03:04:43.392Z,12.81
2023-10-23T03:07:10.931Z,12.91
2023-10-23T03:09:39.946Z,12.96
2023-10-23T03:12:07.883Z,12.97
2023-10-23T03:14:35.418Z,12.94
2023-10-23T03:17:02.951Z,12.78
2023-10-23T03:19:30.503Z,12.43
2023-10-23T03:21:58.622Z,12.57
2023-10-23T03:24:26.480Z,12.63
2023-10-23T03:26:55.333Z,12.57
2023-10-23T03:29:22.941Z,12.33
2023-10-23T03:31:50.472Z,11.97
2023-10-23T03:34:18.007Z,12.34
2023-10-23T03:36:46.198Z,12.26
2023-10-23T03:39:13.738Z,12.33
2023-10-23T03:41:41.253Z,12.28
2023-10-23T03:44:10.198Z,12.33
2023-10-23T03:46:37.706Z,12.42
2023-10-23T03:49:05.386Z,12.37
2023-10-23T03:51:32.900Z,12.44
2023-10-23T03:54:01.025Z,12.49
2023-10-23T03:56:28.542Z,12.38
2023-10-23T03:58:56.106Z,12.53
2023-10-23T04:01:24.968Z,12.57
2023-10-23T04:03:52.564Z,12.68
2023-10-23T04:06:20.165Z,12.62
2023-10-23T04:08:47.704Z,12.72
2023-10-23T04:11:15.896Z,12.78
2023-10-23T04:13:43.509Z,12.65
2023-10-23T04:16:11.467Z,12.75
2023-10-23T04:18:40.577Z,12.81
2023-10-23T04:21:09.302Z,12.93
2023-10-23T04:23:38.012Z,12.88
2023-10-23T04:26:05.856Z,13.00
2023-10-23T04:28:34.118Z,13.01
2023-10-23T04:31:01.752Z,12.80
2023-10-23T04:33:29.463Z,12.96
2023-10-23T04:35:59.378Z,12.87
2023-10-23T04:38:27.398Z,12.88
2023-10-23T04:40:55.271Z,12.74
2023-10-23T04:43:23.445Z,12.87
2023-10-23T04:45:54.067Z,12.94
2023-10-23T04:48:22.143Z,12.94
2023-10-23T04:50:49.893Z,12.67
2023-10-23T04:53:20.549Z,12.73
2023-10-23T04:55:48.141Z,12.74
2023-10-23T04:58:15.825Z,12.91
2023-10-23T05:00:45.445Z,12.67
2023-10-23T05:03:13.128Z,12.82
2023-10-23T05:05:47.554Z,12.91
2023-10-23T05:08:15.135Z,12.93
2023-10-23T05:10:44.196Z,12.61
2023-10-23T05:13:11.718Z,12.87
2023-10-23T05:15:39.245Z,12.88
2023-10-23T05:18:06.937Z,12.92
2023-10-23T05:20:35.772Z,12.85
2023-10-23T05:23:04.197Z,12.73
2023-10-23T05:25:31.757Z,12.79
2023-10-23T05:28:00.767Z,12.71
2023-10-23T05:30:28.741Z,12.79
2023-10-23T05:32:56.330Z,12.84
2023-10-23T05:35:23.886Z,12.83
2023-10-23T05:37:51.413Z,12.76
2023-10-23T05:40:18.935Z,12.73
2023-10-23T05:42:46.465Z,12.66
2023-10-23T05:45:15.513Z,12.76
2023-10-23T05:47:43.060Z,12.81
2023-10-23T05:50:11.177Z,12.80
2023-10-23T05:52:38.673Z,12.74
2023-10-23T05:55:09.402Z,12.71
2023-10-23T05:57:37.046Z,12.60
2023-10-23T06:00:05.618Z,12.57
2023-10-23T06:02:34.448Z,12.53
2023-10-23T06:05:02.065Z,12.46
2023-10-23T06:07:31.148Z,12.44
2023-10-23T06:10:00.586Z,12.29
2023-10-23T06:12:28.222Z,12.39
2023-10-23T06:14:55.868Z,12.37
2023-10-23T06:17:23.505Z,12.40
2023-10-23T06:19:52.405Z,12.21
2023-10-23T06:22:19.954Z,12.22
2023-10-23T06:24:47.558Z,12.24
2023-10-23T06:27:15.120Z,12.28
2023-10-23T06:29:42.622Z,12.22
2023-10-23T06:32:10.152Z,12.28
2023-10-23T06:34:37.661Z,12.06
2023-10-23T06:37:06.600Z,12.27
2023-10-23T06:39:34.620Z,12.46
2023-10-23T06:42:02.184Z,12.52
2023-10-23T06:44:30.203Z,12.67
2023-10-23T06:46:57.707Z,12.76
2023-10-23T06:49:25.831Z,12.88
2023-10-23T06:51:53.837Z,12.93
2023-10-23T06:54:23.750Z,13.08
2023-10-23T06:56:51.512Z,13.27
2023-10-23T06:59:19.251Z,13.35
2023-10-23T07:01:46.757Z,13.54
2023-10-23T07:04:14.516Z,13.58
2023-10-23T07:06:42.184Z,13.75
2023-10-23T07:09:09.801Z,13.90
2023-10-23T07:11:38.748Z,14.09
2023-10-23T07:14:06.359Z,13.99
2023-10-23T07:16:33.930Z,14.12
2023-10-23T07:19:04.747Z,14.56
2023-10-23T07:21:32.336Z,14.70
2023-10-23T07:24:00.121Z,14.69
2023-10-23T07:26:27.712Z,14.78
2023-10-23T07:28:56.585Z,15.05
2023-10-23T07:31:24.107Z,15.14
2023-10-23T07:33:51.762Z,14.85
2023-10-23T07:36:19.510Z,14.84
2023-10-23T07:38:47.837Z,15.10
2023-10-23T07:41:15.563Z,15.36
2023-10-23T07:43:44.130Z,15.77
2023-10-23T07:46:17.533Z,15.75
2023-10-23T07:48:46.790Z,16.13
2023-10-23T07:51:14.969Z,16.17
2023-10-23T07:53:42.808Z,16.55
2023-10-23T07:56:10.372Z,16.28
2023-10-23T07:58:38.015Z,16.18
2023-10-23T08:01:07.174Z,16.17
2023-10-23T08:03:36.870Z,15.88
2023-10-23T08:06:05.578Z,15.91
2023-10-23T08:08:35.138Z,15.87
2023-10-23T08:11:04.243Z,16.10
2023-10-23T08:13:31.970Z,16.38
2023-10-23T08:16:01.407Z,16.32
2023-10-23T08:21:01.074Z,16.91
2023-10-23T08:23:28.599Z,17.09
2023-10-23T08:25:56.777Z,17.55
2023-10-23T08:28:24.387Z,17.70
2023-10-23T08:30:51.940Z,16.53
2023-10-23T08:33:19.609Z,16.79
2023-10-23T08:35:47.191Z,15.85
2023-10-23T08:38:16.042Z,16.67
2023-10-23T08:40:44.055Z,17.56
2023-10-23T08:43:11.818Z,17.57
2023-10-23T08:45:40.815Z,16.40
2023-10-23T08:48:08.364Z,17.53
2023-10-23T08:50:37.259Z,17.47
2023-10-23T08:53:09.338Z,18.06
2023-10-23T08:55:38.830Z,17.77
2023-10-23T08:58:07.375Z,16.65
2023-10-23T09:00:35.521Z,18.03
2023-10-23T09:03:06.852Z,16.85
2023-10-23T09:05:34.524Z,16.89
2023-10-23T09:08:02.985Z,16.66
2023-10-23T09:10:30.513Z,17.62
2023-10-23T09:12:59.411Z,18.44
2023-10-23T09:15:26.944Z,17.35
2023-10-23T09:17:54.776Z,17.50
2023-10-23T09:20:27.604Z,17.67
2023-10-23T09:22:57.781Z,18.04
2023-10-23T09:25:26.223Z,17.92
2023-10-23T09:27:54.265Z,17.40
2023-10-23T09:30:23.550Z,17.44
2023-10-23T09:32:54.383Z,17.55
2023-10-23T09:35:24.018Z,18.19
2023-10-23T09:37:51.627Z,18.90
2023-10-23T09:40:19.856Z,19.22
2023-10-23T09:42:47.543Z,19.51
2023-10-23T09:45:16.346Z,19.50
2023-10-23T09:47:47.651Z,18.81
2023-10-23T09:50:15.816Z,18.56
2023-10-23T09:52:45.887Z,18.38
2023-10-23T09:55:14.830Z,19.09
2023-10-23T09:57:47.337Z,18.61
2023-10-23T10:00:15.773Z,18.04
2023-10-23T10:02:50.045Z,18.48
2023-10-23T10:05:20.012Z,18.93
2023-10-23T10:07:53.516Z,18.82
2023-10-23T10:10:23.853Z,18.55
2023-10-23T10:12:52.006Z,18.38
2023-10-23T10:15:20.896Z,18.16
2023-10-23T10:17:51.441Z,18.20
2023-10-23T10:20:21.615Z,18.47
2023-10-23T10:22:58.523Z,18.56
2023-10-23T10:25:28.686Z,18.42
2023-10-23T10:28:00.230Z,18.96
2023-10-23T10:30:43.433Z,19.55
2023-10-23T10:34:22.767Z,19.34
2023-10-23T10:36:07.474Z,19.65
2023-10-23T10:38:36.951Z,19.08
2023-10-23T10:41:05.715Z,19.01
2023-10-23T10:43:34.668Z,19.66
2023-10-23T10:46:05.856Z,18.77
2023-10-23T10:48:44.858Z,18.21
2023-10-23T10:51:15.559Z,18.21
2023-10-23T10:53:43.379Z,19.28
2023-10-23T10:56:11.162Z,18.99
2023-10-23T10:58:39.789Z,19.17
2023-10-23T11:01:09.158Z,19.91
2023-10-23T11:03:37.907Z,18.41
2023-10-23T11:06:08.126Z,18.72
2023-10-23T11:08:36.104Z,18.85
2023-10-23T11:11:05.755Z,17.90
2023-10-23T11:13:33.497Z,17.96
2023-10-23T11:16:02.175Z,17.69
2023-10-23T11:18:30.267Z,16.91
2023-10-23T11:20:58.587Z,17.43
2023-10-23T11:23:27.736Z,17.59
2023-10-23T11:25:56.777Z,18.31
2023-10-23T11:28:25.162Z,18.00
2023-10-23T11:30:56.836Z,17.05
2023-10-23T11:33:24.638Z,17.13
2023-10-23T11:35:54.167Z,16.93
2023-10-23T11:38:24.063Z,17.60
2023-10-23T11:40:54.343Z,16.59
2023-10-23T11:43:22.300Z,17.44
2023-10-23T11:45:50.245Z,17.86
2023-10-23T11:48:17.871Z,18.67
2023-10-23T11:50:46.510Z,18.67
2023-10-23T11:53:17.375Z,18.13
2023-10-23T11:55:47.566Z,18.01
2023-10-23T11:58:16.435Z,18.04
2023-10-23T12:00:44.034Z,18.56
2023-10-23T12:03:11.816Z,18.97
2023-10-23T12:05:39.445Z,18.08
2023-10-23T12:08:06.980Z,18.19
2023-10-23T12:10:39.068Z,18.81
2023-10-23T12:13:07.137Z,18.98
2023-10-23T12:15:36.025Z,18.70
2023-10-23T12:18:05.445Z,17.91
2023-10-23T12:20:33.858Z,18.25
2023-10-23T12:23:01.415Z,18.11
2023-10-23T12:25:29.015Z,17.83
2023-10-23T12:27:56.681Z,18.30
2023-10-23T12:30:28.979Z,18.45
2023-10-23T12:33:16.316Z,18.35
2023-10-23T12:35:46.040Z,18.79
2023-10-23T12:38:13.779Z,18.50
2023-10-23T12:40:42.620Z,17.95
2023-10-23T12:43:10.564Z,17.69
2023-10-23T12:45:38.116Z,17.90
2023-10-23T12:48:07.318Z,18.50
2023-10-23T12:50:34.931Z,18.88
2023-10-23T12:53:02.759Z,19.08
2023-10-23T12:55:30.296Z,19.14
2023-10-23T12:57:57.912Z,19.23
2023-10-23T13:00:26.356Z,19.26
2023-10-23T13:02:53.974Z,19.29
2023-10-23T13:05:22.952Z,18.77
2023-10-23T13:07:50.612Z,19.15
2023-10-23T13:10:18.272Z,19.16
2023-10-23T13:12:45.794Z,18.87
2023-10-23T13:15:13.393Z,18.58
2023-10-23T13:17:41.034Z,18.57
2023-10-23T13:21:27.801Z,19.26
2023-10-23T13:23:00.240Z,19.17
2023-10-23T13:25:27.851Z,18.86
2023-10-23T13:27:56.896Z,18.50
2023-10-23T13:30:24.561Z,18.87
2023-10-23T13:32:52.811Z,18.68
2023-10-23T13:35:20.985Z,18.45
2023-10-23T13:37:48.508Z,18.62
2023-10-23T13:40:17.453Z,18.80
2023-10-23T13:42:45.531Z,18.81
2023-10-23T13:45:15.167Z,18.88
2023-10-23T13:47:44.946Z,18.75
2023-10-23T13:50:12.738Z,18.75
2023-10-23T13:52:42.070Z,18.64
2023-10-23T13:55:11.537Z,18.48
2023-10-23T13:57:40.695Z,18.22
2023-10-23T14:00:11.063Z,18.26
2023-10-23T14:02:38.941Z,17.79
2023-10-23T14:05:07.689Z,18.05
2023-10-23T14:07:35.284Z,18.13
2023-10-23T14:10:03.562Z,17.80
2023-10-23T14:12:31.148Z,17.86
2023-10-23T14:14:59.986Z,17.99
2023-10-23T14:17:27.499Z,17.77
2023-10-23T14:19:55.036Z,17.73
2023-10-23T14:22:22.713Z,17.80
2023-10-23T14:24:50.442Z,17.77
2023-10-23T14:27:18.114Z,17.31
2023-10-23T14:29:45.743Z,17.58
2023-10-23T14:32:15.100Z,17.62
2023-10-23T14:34:42.651Z,17.60
2023-10-23T14:37:10.261Z,17.39
2023-10-23T14:39:38.005Z,17.52
2023-10-23T14:42:06.461Z,17.38
2023-10-23T14:44:35.899Z,17.51
2023-10-23T14:47:03.578Z,17.44
2023-10-23T14:49:32.853Z,17.49
2023-10-23T14:52:00.502Z,17.36
2023-10-23T14:54:28.062Z,17.21
2023-10-23T14:56:55.585Z,17.29
2023-10-23T14:59:23.651Z,17.27
2023-10-23T15:01:51.804Z,17.31
2023-10-23T15:04:19.510Z,17.24
2023-10-23T15:06:48.368Z,17.17
2023-10-23T15:09:15.967Z,17.12
2023-10-23T15:11:43.605Z,17.12
2023-10-23T15:14:11.305Z,16.97
2023-10-23T15:16:39.770Z,16.99
2023-10-23T15:19:07.343Z,16.97
2023-10-23T15:21:34.898Z,16.82
2023-10-23T15:24:03.943Z,16.69
2023-10-23T15:26:31.452Z,16.73
2023-10-23T15:28:58.915Z,16.64
2023-10-23T15:31:27.145Z,16.36
2023-10-23T15:33:54.886Z,16.16
2023-10-23T15:36:22.459Z,16.22
2023-10-23T15:38:51.767Z,16.21
2023-10-23T15:41:20.718Z,16.11
2023-10-23T15:43:52.387Z,15.91
2023-10-23T15:46:20.353Z,15.78
2023-10-23T15:48:47.922Z,15.74
2023-10-23T15:51:17.741Z,15.56
2023-10-23T15:53:45.220Z,15.54
2023-10-23T15:56:12.768Z,15.48
2023-10-23T15:58:41.957Z,15.47
2023-10-23T16:01:10.218Z,15.43
2023-10-23T16:03:38.039Z,15.41
2023-10-23T16:06:09.206Z,15.31
2023-10-23T16:08:37.773Z,15.24
2023-10-23T16:11:05.952Z,15.10
2023-10-23T16:13:37.981Z,15.04
2023-10-23T16:16:14.361Z,14.95
2023-10-23T16:18:44.800Z,14.96
2023-10-23T16:21:14.741Z,14.87
2023-10-23T16:23:42.426Z,14.73
2023-10-23T16:26:09.962Z,14.67
2023-10-23T16:28:37.586Z,14.69
2023-10-23T16:31:05.298Z,14.57
2023-10-23T16:33:34.184Z,14.49
2023-10-23T16:36:01.782Z,14.38
2023-10-23T16:38:29.490Z,14.25
2023-10-23T16:40:57.077Z,14.11
2023-10-23T16:43:25.077Z,14.19
2023-10-23T16:45:52.648Z,14.41
2023-10-23T16:48:20.220Z,14.67
2023-10-23T16:50:49.059Z,14.56
2023-10-23T16:53:18.313Z,14.69
2023-10-23T16:55:52.538Z,14.19
2023-10-23T16:58:24.244Z,14.49
2023-10-23T17:00:52.130Z,14.30
2023-10-23T17:03:19.820Z,14.26
2023-10-23T17:05:48.708Z,14.29
2023-10-23T17:08:16.197Z,14.84
2023-10-23T17:10:43.663Z,14.74
2023-10-23T17:13:11.824Z,14.38
2023-10-23T17:15:43.341Z,14.39
2023-10-23T17:18:10.965Z,14.31
2023-10-23T17:20:42.512Z,14.50
2023-10-23T17:23:11.359Z,14.27
2023-10-23T17:25:41.384Z,14.70
2023-10-23T17:28:09.691Z,14.82
2023-10-23T17:30:38.277Z,14.58
2023-10-23T17:33:07.363Z,14.48
2023-10-23T17:35:35.252Z,14.46
2023-10-23T17:38:03.325Z,14.65
2023-10-23T17:40:37.015Z,14.32
2023-10-23T17:43:04.714Z,14.46
2023-10-23T17:45:33.994Z,14.22
2023-10-23T17:48:03.177Z,14.37
2023-10-23T17:50:33.449Z,14.14
2023-10-23T17:53:01.348Z,14.26
2023-10-23T17:55:29.148Z,14.20
2023-10-23T17:57:58.338Z,14.25
2023-10-23T18:00:26.639Z,14.25
2023-10-23T18:02:54.444Z,14.00
2023-10-23T18:05:22.349Z,13.92
2023-10-23T18:07:53.615Z,13.97
2023-10-23T18:10:21.791Z,14.04
2023-10-23T18:12:49.909Z,13.85
2023-10-23T18:15:19.639Z,13.61
2023-10-23T18:17:48.764Z,13.57
2023-10-23T18:20:16.657Z,13.29
2023-10-23T18:22:44.422Z,13.47
2023-10-23T18:25:12.288Z,13.54
2023-10-23T18:27:40.717Z,13.40
2023-10-23T18:30:09.303Z,13.45
2023-10-23T18:32:38.160Z,13.10
2023-10-23T18:35:08.558Z,13.43
2023-10-23T18:37:36.418Z,13.43
2023-10-23T18:40:05.418Z,13.29
2023-10-23T18:42:35.289Z,13.26
2023-10-23T18:45:05.154Z,13.25
2023-10-23T18:47:33.356Z,13.29
2023-10-23T18:50:04.757Z,13.26
2023-10-23T18:52:32.725Z,13.30
2023-10-23T18:55:00.704Z,13.29
2023-10-23T18:57:28.348Z,13.31
2023-10-23T18:59:56.703Z,13.29
2023-10-23T19:02:24.269Z,13.31
2023-10-23T19:04:51.838Z,13.20
2023-10-23T19:07:21.509Z,12.97
2023-10-23T19:09:49.037Z,12.59
2023-10-23T19:12:17.199Z,12.26
2023-10-23T19:14:44.717Z,12.30
2023-10-23T19:17:18.903Z,12.14
2023-10-23T19:19:52.653Z,12.29
2023-10-23T19:22:21.547Z,12.34
2023-10-23T19:24:49.655Z,12.36
2023-10-23T19:27:17.702Z,12.23
2023-10-23T19:29:45.209Z,12.17
2023-10-23T19:32:13.939Z,11.87
2023-10-23T19:34:42.680Z,11.73
2023-10-23T19:37:10.774Z,11.89
2023-10-23T19:39:40.551Z,11.97
2023-10-23T19:42:12.463Z,11.97
2023-10-23T19:44:40.421Z,11.89
2023-10-23T19:47:08.966Z,12.07
2023-10-23T19:49:37.187Z,11.79
2023-10-23T19:52:10.768Z,11.81
2023-10-23T19:54:49.662Z,11.51
2023-10-23T19:57:19.067Z,11.60
2023-10-23T19:59:46.659Z,11.53
2023-10-23T20:02:14.241Z,11.45
2023-10-23T20:04:41.927Z,11.69
2023-10-23T20:07:09.484Z,11.83
2023-10-23T20:09:37.789Z,11.91
2023-10-23T20:12:07.207Z,12.05
2023-10-23T20:14:34.821Z,12.16
2023-10-23T20:17:02.407Z,11.98
2023-10-23T20:19:30.764Z,11.96
2023-10-23T20:21:59.418Z,12.05
2023-10-23T20:24:27.084Z,12.03
2023-10-23T20:26:54.602Z,11.92
2023-10-23T20:29:23.649Z,11.96
2023-10-23T20:31:51.801Z,12.09
2023-10-23T20:34:19.352Z,12.13
2023-10-23T20:36:47.264Z,11.98
2023-10-23T20:39:15.134Z,11.72
2023-10-23T20:41:42.646Z,11.69
2023-10-23T20:44:10.114Z,11.63
2023-10-23T20:46:38.988Z,11.45
2023-10-23T20:49:06.939Z,11.69
2023-10-23T20:51:34.472Z,11.64
2023-10-23T20:54:01.989Z,11.58
2023-10-23T20:56:29.695Z,11.50
2023-10-23T20:58:57.231Z,11.57
2023-10-23T21:01:24.875Z,11.84
2023-10-23T21:03:53.813Z,11.82
2023-10-23T21:06:22.660Z,11.90
2023-10-23T21:08:50.117Z,11.79
2023-10-23T21:11:17.620Z,11.84
2023-10-23T21:13:47.418Z,11.98
2023-10-23T21:16:15.153Z,11.88
2023-10-23T21:18:42.724Z,11.84
2023-10-23T21:21:11.564Z,12.16
2023-10-23T21:23:39.079Z,12.20
2023-10-23T21:26:07.492Z,12.27
2023-10-23T21:28:35.171Z,12.32
2023-10-23T21:31:02.840Z,12.19
2023-10-23T21:33:30.600Z,12.16
2023-10-23T21:35:58.684Z,12.26
2023-10-23T21:38:27.882Z,12.20
2023-10-23T21:40:55.697Z,12.13
2023-10-23T21:43:23.288Z,12.13
2023-10-23T21:46:01.888Z,11.91
2023-10-23T21:48:39.169Z,12.18
2023-10-23T21:51:07.271Z,12.33
2023-10-23T21:53:37.042Z,12.16
2023-10-23T21:56:05.324Z,12.20
2023-10-23T21:59:02.499Z,12.02
2023-10-23T22:01:23.031Z,11.97
2023-10-23T22:03:51.262Z,11.76
2023-10-23T22:06:19.297Z,12.15
2023-10-23T22:08:48.893Z,12.00
2023-10-23T22:11:17.198Z,11.96
2023-10-23T22:13:45.173Z,12.18
2023-10-23T22:16:12.861Z,11.85
2023-10-23T22:18:40.660Z,11.99
2023-10-23T22:21:08.161Z,11.99
2023-10-23T22:23:35.685Z,12.21
2023-10-23T22:26:04.545Z,12.11
2023-10-23T22:28:32.153Z,11.97
2023-10-23T22:30:59.724Z,12.10
2023-10-23T22:33:27.689Z,12.31
2023-10-23T22:35:55.308Z,12.25
2023-10-23T22:38:22.808Z,12.35
2023-10-23T22:40:52.172Z,12.34
2023-10-23T22:43:21.043Z,12.47
2023-10-23T22:46:01.630Z,12.46
2023-10-23T22:48:30.348Z,12.32
2023-10-23T22:50:58.320Z,12.50
2023-10-23T22:53:26.294Z,12.35
2023-10-23T22:55:56.569Z,12.32
2023-10-23T22:58:30.999Z,12.41
2023-10-23T23:00:59.254Z,12.47
2023-10-23T23:03:27.556Z,12.57
2023-10-23T23:05:59.305Z,12.68
2023-10-23T23:08:30.769Z,12.70
2023-10-23T23:10:58.876Z,12.67
2023-10-23T23:13:28.355Z,12.51
2023-10-23T23:16:02.512Z,12.30
2023-10-23T23:18:31.419Z,12.26
2023-10-23T23:21:04.255Z,12.32
2023-10-23T23:23:31.786Z,12.53
2023-10-23T23:25:59.258Z,12.64
2023-10-23T23:28:28.149Z,12.60
2023-10-23T23:30:55.709Z,12.59
2023-10-23T23:33:23.236Z,12.60
2023-10-23T23:35:53.641Z,12.07
2023-10-23T23:38:21.133Z,12.36
2023-10-23T23:40:48.667Z,12.33
2023-10-23T23:43:16.491Z,12.39
2023-10-23T23:45:45.738Z,12.22
2023-10-23T23:48:13.254Z,12.16
2023-10-23T23:50:41.147Z,12.21
2023-10-23T23:53:08.640Z,12.10
2023-10-23T23:55:36.157Z,12.01
2023-10-23T23:58:03.654Z,12.00
